Asteria — WDE5489 — position and weather

sailwx.info

Track history (hours):
 
Tides and Currents Weather Stations Pressure Air Temp Water Temp Dewpoint Dewpoint Depression Visibility Wind Speed Wind Dir Waves Ship Positions

Asteria

Owner: Boston HarborCruises, Boston, MA. More information available from US FCC via Universal Licensing System and Coast Guard Vessel Documentation Center.

Last reported at 2016-Dec-06 11:33 UTC. Time now 2016-Dec-06 12:12 UTC.
Position N 42°16' W 070°55'.

Length 33 m; draft 2 m.

Type: High speed craft. MMSI: 367367470.

Date/timePositionNaut miles runAvg speedWind from/ knotsBaromVisibWave heightAir tempDewpointWater temp
2016-Dec-06 11:33N 42°16' W 070°55'1 0.1
2016-Dec-06 01:08N 42°15' W 070°55'814.5
2016-Dec-06 00:34N 42°21' W 071°03'8 8.3
2016-Dec-05 23:33N 42°15' W 070°55'8 8.3
2016-Dec-05 22:33N 42°21' W 071°03'0 0.1
2016-Dec-05 21:33N 42°21' W 071°03'0 0.2
2016-Dec-05 20:33N 42°21' W 071°03'8 7.6
2016-Dec-05 19:33N 42°15' W 070°58'0 0.4
2016-Dec-05 18:16N 42°15' W 070°58'0 0.0
2016-Dec-05 17:33N 42°15' W 070°58'3 3.4
2016-Dec-05 16:34N 42°17' W 070°56'7 6.8
2016-Dec-05 15:33N 42°22' W 071°03'1 0.6
2016-Dec-05 14:33N 42°22' W 071°02'8 8.2
2016-Dec-05 13:33N 42°15' W 070°55'5 5.1
2016-Dec-05 12:34N 42°19' W 070°60'5 5.1
2016-Dec-05 11:33N 42°15' W 070°55'  
2016-Dec-03 01:27N 42°15' W 070°55'8 9.1
2016-Dec-03 00:33N 42°21' W 071°02'8 8.1
2016-Dec-02 23:33N 42°15' W 070°55'8 8.3
2016-Dec-02 22:33N 42°21' W 071°03'0 0.0
2016-Dec-02 21:34N 42°21' W 071°03'0 0.2
2016-Dec-02 20:33N 42°21' W 071°03'8 8.3
2016-Dec-02 19:34N 42°15' W 070°55'8 8.2
2016-Dec-02 18:33N 42°21' W 071°03'0 0.1
2016-Dec-02 17:33N 42°21' W 071°03'0 0.0
2016-Dec-02 16:33N 42°21' W 071°03'1 0.7
2016-Dec-02 15:33N 42°22' W 071°02'0 0.4
2016-Dec-02 14:33N 42°21' W 071°03'8 8.2
2016-Dec-02 13:33N 42°15' W 070°55'5 5.0
2016-Dec-02 12:34N 42°19' W 070°59'4 4.2
2016-Dec-02 11:33N 42°16' W 070°56'7 0.7
2016-Dec-02 00:33N 42°21' W 071°03'8 8.2
2016-Dec-01 23:33N 42°15' W 070°55'8 8.4
2016-Dec-01 22:33N 42°21' W 071°03'0 0.2
2016-Dec-01 21:33N 42°21' W 071°03'0 0.2
2016-Dec-01 20:34N 42°21' W 071°03'0 0.0
2016-Dec-01 19:33N 42°21' W 071°03'3 3.0
2016-Dec-01 18:34N 42°20' W 070°59'3 3.1
2016-Dec-01 17:33N 42°22' W 071°03'0 0.0
2016-Dec-01 16:33N 42°22' W 071°03'0 0.2
2016-Dec-01 15:33N 42°21' W 071°03'1 0.7
2016-Dec-01 14:33N 42°22' W 071°02'8 8.3
2016-Dec-01 13:34N 42°15' W 070°55'5 5.3
2016-Dec-01 12:34N 42°19' W 070°60'5 4.2
2016-Dec-01 11:22N 42°15' W 070°58'2 2.9
2016-Dec-01 10:34N 42°15' W 070°55'0 0.0
2016-Dec-01 01:04N 42°15' W 070°55'816.2
2016-Dec-01 00:33N 42°21' W 071°03'8 8.3
2016-Nov-30 23:33N 42°15' W 070°55'8 8.3
2016-Nov-30 22:33N 42°21' W 071°03'0 0.1
2016-Nov-30 21:33N 42°21' W 071°03'2 1.5
2016-Nov-30 20:33N 42°23' W 071°03'0 0.1
2016-Nov-30 19:26N 42°23' W 071°03'0 0.0
2016-Nov-30 18:26N 42°23' W 071°03'0 0.0
2016-Nov-30 17:33N 42°23' W 071°03'0 0.0
2016-Nov-30 16:30N 42°23' W 071°03'1 1.3
2016-Nov-30 15:33N 42°22' W 071°02'1 0.5
2016-Nov-30 14:33N 42°22' W 071°03'9 8.6
2016-Nov-30 13:33N 42°15' W 070°55'5 5.0
2016-Nov-30 12:34N 42°19' W 070°59'5 4.4
2016-Nov-30 11:32N 42°16' W 070°55'8 0.7
2016-Nov-30 00:34N 42°21' W 071°03'8 8.2
2016-Nov-29 23:33N 42°15' W 070°55'8 8.4
2016-Nov-29 22:33N 42°21' W 071°03'0 0.3
2016-Nov-29 21:33N 42°21' W 071°03'0 0.3
2016-Nov-29 20:33N 42°21' W 071°03'0 0.0
2016-Nov-29 19:33N 42°21' W 071°03'0 0.0
2016-Nov-29 18:33N 42°21' W 071°03'0 0.0
2016-Nov-29 17:33N 42°21' W 071°03'0 0.1
2016-Nov-29 16:33N 42°21' W 071°03'0 0.1
2016-Nov-29 15:33N 42°21' W 071°03'0 0.4
2016-Nov-29 14:33N 42°22' W 071°02'8 8.2
2016-Nov-29 13:33N 42°15' W 070°55'6 5.6
2016-Nov-29 12:33N 42°20' W 070°60'5 4.2
2016-Nov-29 11:21N 42°15' W 070°58'2 3.0
2016-Nov-29 10:33N 42°15' W 070°55'0 0.0
2016-Nov-29 01:03N 42°15' W 070°55'816.7
2016-Nov-29 00:34N 42°21' W 071°03'8 8.3
2016-Nov-28 23:33N 42°15' W 070°55'8 8.3
2016-Nov-28 22:33N 42°21' W 071°03'0 0.1
2016-Nov-28 21:33N 42°21' W 071°03'2 2.3
2016-Nov-28 20:34N 42°20' W 071°00'3 0.5
2016-Nov-28 15:33N 42°18' W 070°58'5 4.9
2016-Nov-28 14:33N 42°22' W 071°02'8 8.0
2016-Nov-28 13:31N 42°15' W 070°55'5 5.0
2016-Nov-28 12:34N 42°19' W 070°59'4 4.1
2016-Nov-28 11:33N 42°15' W 070°56'  
Track history (hours):
 
Tides and Currents Weather Stations Pressure Air Temp Water Temp Dewpoint Dewpoint Depression Visibility Wind Speed Wind Dir Waves Ship Positions

Asteria

Owner: Boston HarborCruises, Boston, MA. More information available from US FCC via Universal Licensing System and Coast Guard Vessel Documentation Center.

Last reported at 2016-Dec-06 11:33 UTC. Time now 2016-Dec-06 12:12 UTC.
Position N 42°16' W 070°55'.

Length 33 m; draft 2 m.

Type: High speed craft. MMSI: 367367470.

Date/timePositionNaut miles runAvg speedWind from/ knotsBaromVisibWave heightAir tempDewpointWater temp
2016-Dec-06 11:33N 42°16' W 070°55'1 0.1
2016-Dec-06 01:08N 42°15' W 070°55'814.5
2016-Dec-06 00:34N 42°21' W 071°03'8 8.3
2016-Dec-05 23:33N 42°15' W 070°55'8 8.3
2016-Dec-05 22:33N 42°21' W 071°03'0 0.1
2016-Dec-05 21:33N 42°21' W 071°03'0 0.2
2016-Dec-05 20:33N 42°21' W 071°03'8 7.6
2016-Dec-05 19:33N 42°15' W 070°58'0 0.4
2016-Dec-05 18:16N 42°15' W 070°58'0 0.0
2016-Dec-05 17:33N 42°15' W 070°58'3 3.4
2016-Dec-05 16:34N 42°17' W 070°56'7 6.8
2016-Dec-05 15:33N 42°22' W 071°03'1 0.6
2016-Dec-05 14:33N 42°22' W 071°02'8 8.2
2016-Dec-05 13:33N 42°15' W 070°55'5 5.1
2016-Dec-05 12:34N 42°19' W 070°60'5 5.1
2016-Dec-05 11:33N 42°15' W 070°55'  
2016-Dec-03 01:27N 42°15' W 070°55'8 9.1
2016-Dec-03 00:33N 42°21' W 071°02'8 8.1
2016-Dec-02 23:33N 42°15' W 070°55'8 8.3
2016-Dec-02 22:33N 42°21' W 071°03'0 0.0
2016-Dec-02 21:34N 42°21' W 071°03'0 0.2
2016-Dec-02 20:33N 42°21' W 071°03'8 8.3
2016-Dec-02 19:34N 42°15' W 070°55'8 8.2
2016-Dec-02 18:33N 42°21' W 071°03'0 0.1
2016-Dec-02 17:33N 42°21' W 071°03'0 0.0
2016-Dec-02 16:33N 42°21' W 071°03'1 0.7
2016-Dec-02 15:33N 42°22' W 071°02'0 0.4
2016-Dec-02 14:33N 42°21' W 071°03'8 8.2
2016-Dec-02 13:33N 42°15' W 070°55'5 5.0
2016-Dec-02 12:34N 42°19' W 070°59'4 4.2
2016-Dec-02 11:33N 42°16' W 070°56'7 0.7
2016-Dec-02 00:33N 42°21' W 071°03'8 8.2
2016-Dec-01 23:33N 42°15' W 070°55'8 8.4
2016-Dec-01 22:33N 42°21' W 071°03'0 0.2
2016-Dec-01 21:33N 42°21' W 071°03'0 0.2
2016-Dec-01 20:34N 42°21' W 071°03'0 0.0
2016-Dec-01 19:33N 42°21' W 071°03'3 3.0
2016-Dec-01 18:34N 42°20' W 070°59'3 3.1
2016-Dec-01 17:33N 42°22' W 071°03'0 0.0
2016-Dec-01 16:33N 42°22' W 071°03'0 0.2
2016-Dec-01 15:33N 42°21' W 071°03'1 0.7
2016-Dec-01 14:33N 42°22' W 071°02'8 8.3
2016-Dec-01 13:34N 42°15' W 070°55'5 5.3
2016-Dec-01 12:34N 42°19' W 070°60'5 4.2
2016-Dec-01 11:22N 42°15' W 070°58'2 2.9
2016-Dec-01 10:34N 42°15' W 070°55'0 0.0
2016-Dec-01 01:04N 42°15' W 070°55'816.2
2016-Dec-01 00:33N 42°21' W 071°03'8 8.3
2016-Nov-30 23:33N 42°15' W 070°55'8 8.3
2016-Nov-30 22:33N 42°21' W 071°03'0 0.1
2016-Nov-30 21:33N 42°21' W 071°03'2 1.5
2016-Nov-30 20:33N 42°23' W 071°03'0 0.1
2016-Nov-30 19:26N 42°23' W 071°03'0 0.0
2016-Nov-30 18:26N 42°23' W 071°03'0 0.0
2016-Nov-30 17:33N 42°23' W 071°03'0 0.0
2016-Nov-30 16:30N 42°23' W 071°03'1 1.3
2016-Nov-30 15:33N 42°22' W 071°02'1 0.5
2016-Nov-30 14:33N 42°22' W 071°03'9 8.6
2016-Nov-30 13:33N 42°15' W 070°55'5 5.0
2016-Nov-30 12:34N 42°19' W 070°59'5 4.4
2016-Nov-30 11:32N 42°16' W 070°55'8 0.7
2016-Nov-30 00:34N 42°21' W 071°03'8 8.2
2016-Nov-29 23:33N 42°15' W 070°55'8 8.4
2016-Nov-29 22:33N 42°21' W 071°03'0 0.3
2016-Nov-29 21:33N 42°21' W 071°03'0 0.3
2016-Nov-29 20:33N 42°21' W 071°03'0 0.0
2016-Nov-29 19:33N 42°21' W 071°03'0 0.0
2016-Nov-29 18:33N 42°21' W 071°03'0 0.0
2016-Nov-29 17:33N 42°21' W 071°03'0 0.1
2016-Nov-29 16:33N 42°21' W 071°03'0 0.1
2016-Nov-29 15:33N 42°21' W 071°03'0 0.4
2016-Nov-29 14:33N 42°22' W 071°02'8 8.2
2016-Nov-29 13:33N 42°15' W 070°55'6 5.6
2016-Nov-29 12:33N 42°20' W 070°60'5 4.2
2016-Nov-29 11:21N 42°15' W 070°58'2 3.0
2016-Nov-29 10:33N 42°15' W 070°55'0 0.0
2016-Nov-29 01:03N 42°15' W 070°55'816.7
2016-Nov-29 00:34N 42°21' W 071°03'8 8.3
2016-Nov-28 23:33N 42°15' W 070°55'8 8.3
2016-Nov-28 22:33N 42°21' W 071°03'0 0.1
2016-Nov-28 21:33N 42°21' W 071°03'2 2.3
2016-Nov-28 20:34N 42°20' W 071°00'3 0.5
2016-Nov-28 15:33N 42°18' W 070°58'5 4.9
2016-Nov-28 14:33N 42°22' W 071°02'8 8.0
2016-Nov-28 13:31N 42°15' W 070°55'5 5.0
2016-Nov-28 12:34N 42°19' W 070°59'4 4.1
2016-Nov-28 11:33N 42°15' W 070°56'  

Dump ship's entire track history